CDT,Max TemperatureF,Mean TemperatureF,Min TemperatureF,Max Dew PointF,MeanDew PointF,Min DewpointF,Max Humidity, Mean Humidity, Min Humidity, Max Sea Level PressureIn, Mean Sea Level PressureIn, Min Sea Level PressureIn, Max VisibilityMiles, Mean VisibilityMiles, Min VisibilityMiles, Max Wind SpeedMPH, Mean Wind SpeedMPH, Max Gust SpeedMPH,PrecipitationIn, CloudCover, Events, WindDirDegrees
2014-3-1,28,19,10,23,11,5,86,75,58,30.38,30.22,30.01,10,7,1,16,10,20,0.00,7,,8
2014-3-2,10,5,0,3,-8,-15,73,56,47,30.45,30.41,30.34,10,10,2,17,12,21,0.00,3,,359
2014-3-3,14,2,-9,3,-8,-20,85,60,44,30.53,30.45,30.35,10,10,10,12,5,,0.00,0,,331
2014-3-4,24,16,8,12,6,1,79,69,54,30.36,30.25,30.18,10,10,4,8,3,,0.00,4,,163
2014-3-5,,,,,,,,,,,,,,,,,,,,,,
2014-3-6,26,17,8,18,12,0,92,74,63,30.30,30.16,30.05,10,10,8,10,7,,0.00,0,,113
2014-3-7,44,28,12,32,23,7,93,73,57,30.04,29.95,29.87,10,7,3,10,4,,0.00,0,,212
2014-3-8,35,28,21,32,26,16,93,83,65,30.26,30.17,29.99,10,6,1,13,8,,0.01,5,,5
2014-3-9,41,29,17,34,25,12,93,78,65,30.25,30.06,29.79,10,10,6,12,5,17,0.00,0,,237
2014-3-10,51,43,35,43,36,32,93,76,58,29.80,29.72,29.68,10,10,5,12,7,,0.00,0,,242
2014-3-11,44,38,32,37,34,30,100,85,70,29.78,29.69,29.64,10,8,3,17,5,25,0.00,2,,34
2014-3-12,35,30,24,34,25,18,93,79,60,30.10,29.94,29.73,10,8,1,15,9,23,0.10,7,,356
2014-3-13,42,32,21,36,25,16,87,76,65,30.10,29.99,29.80,10,10,5,10,4,16,0.00,1,,179
2014-3-14,53,44,35,39,33,30,81,69,58,29.90,29.73,29.60,10,10,10,28,11,36,0.00,1,,259
2014-3-15,42,34,28,30,27,25,86,72,60,30.21,30.07,29.90,10,10,10,16,9,21,0.00,1,,27
2014-3-16,28,24,19,27,13,9,86,65,47,30.36,30.27,30.15,10,9,2,24,18,36,0.00,3,,63
2014-3-17,39,27,15,27,17,9,86,65,45,30.16,29.90,29.74,10,10,10,12,7,16,0.00,0,,131
2014-3-18,51,42,32,41,33,25,93,77,66,29.81,29.73,29.60,10,9,5,23,9,29,0.00,1,,128
2014-3-19,41,36,30,39,33,25,100,85,65,30.03,29.77,29.54,10,5,0,26,10,34,0.10,7,,302
2014-3-20,48,38,28,32,28,25,93,70,46,30.07,30.02,29.97,10,10,3,10,5,,0.00,3,,335
2014-3-21,57,44,30,45,34,27,87,72,55,29.99,29.86,29.68,10,9,2,23,9,32,0.00,3,,118
2014-3-22,42,34,26,28,22,10,75,60,41,30.36,30.18,29.94,10,10,10,20,13,24,0.00,5,,333
2014-3-23,33,25,17,10,9,7,63,49,32,30.47,30.41,30.36,10,10,10,17,12,22,0.00,0,,346
2014-3-24,37,28,19,25,14,9,80,55,38,30.38,30.27,30.08,10,10,10,15,7,16,0.00,1,,301
2014-3-25,32,22,15,23,11,7,86,58,40,30.26,30.16,30.06,10,10,0,22,12,29,0.00,2,,312
2014-3-26,41,28,15,23,16,9,79,57,42,30.30,30.16,29.92,10,10,10,14,4,22,0.00,3,,173
2014-3-27,53,44,35,48,37,23,93,82,52,29.91,29.64,29.38,10,9,3,26,9,36,0.14,7,Thunderstorm,179
2014-3-28,44,40,35,43,33,28,93,78,65,30.17,29.93,29.44,10,9,2,24,13,33,0.05,8,,334
2014-3-29,50,40,30,34,29,25,93,68,43,30.25,30.20,30.16,10,8,3,15,6,22,0.00,3,,49
2014-3-30,60,44,28,39,32,21,93,64,39,30.25,30.13,29.98,10,10,8,12,5,20,0.00,0,,165
2014-3-31,66,52,39,45,39,34,81,59,40,30.00,29.82,29.64,10,10,8,17,8,30,0.00,2,,163